Terminal Aerodrome Forecast
Issued by NWS Blacksburg, VA

Current Version | Previous Version | Graphics & Text | Print | Product List | Glossary On
Versions: 1 2 3 4 5 6 7 8 9 10 11 12 13 14 15 16 17 18 19 20 21 22 23 24 25 26 27
000
FTUS41 KRNK 222336
TAFBLF
TAF
KBLF 222336Z 2300/2324 18006KT P6SM SCT250
     FM231500 16009G19KT P6SM SCT025 OVC100
     FM231700 16012G24KT P6SM -RA SCT025 OVC060
     FM232000 15012G22KT 6SM -RA OVC025=

USA.gov is the U.S. government's official web portal to all federal, state and local government web resources and services.